createdAt,value
2019-06-15T00:07:38.909Z,990.19
2019-06-15T00:17:38.946Z,989.88
2019-06-15T00:27:38.931Z,990.02
2019-06-15T00:37:38.991Z,990.29
2019-06-15T00:47:38.959Z,990.00
2019-06-15T00:57:38.960Z,990.33
2019-06-15T01:07:38.977Z,990.67
2019-06-15T01:17:38.979Z,990.71
2019-06-15T01:27:38.950Z,990.36
2019-06-15T01:37:38.910Z,990.30
2019-06-15T01:47:38.952Z,990.62
2019-06-15T01:57:38.925Z,990.01
2019-06-15T02:07:38.895Z,990.04
2019-06-15T02:17:39.191Z,989.80
2019-06-15T02:27:38.929Z,989.78
2019-06-15T02:37:38.920Z,989.78
2019-06-15T02:47:38.996Z,989.79
2019-06-15T02:57:39.077Z,990.77
2019-06-15T03:07:39.021Z,990.64
2019-06-15T03:17:38.998Z,990.81
2019-06-15T03:27:39.024Z,990.78
2019-06-15T03:37:39.029Z,990.93
2019-06-15T03:47:38.998Z,990.90
2019-06-15T03:57:39.064Z,990.75
2019-06-15T04:07:39.038Z,990.65
2019-06-15T04:17:39.002Z,990.60
2019-06-15T04:27:38.945Z,990.55
2019-06-15T04:37:38.947Z,990.59
2019-06-15T04:47:38.998Z,990.48
2019-06-15T04:57:39.012Z,990.54
2019-06-15T05:07:38.920Z,990.51
2019-06-15T05:17:39.008Z,990.61
2019-06-15T05:27:39.014Z,990.59
2019-06-15T05:37:38.962Z,990.69
2019-06-15T05:47:38.938Z,990.81
2019-06-15T05:57:39.023Z,990.91
2019-06-15T06:07:38.978Z,991.01
2019-06-15T06:17:38.956Z,990.91
2019-06-15T06:27:39.025Z,991.03
2019-06-15T06:37:39.031Z,991.06
2019-06-15T06:47:39.042Z,991.08
2019-06-15T06:57:51.285Z,991.38
2019-06-15T07:07:39.091Z,991.69
2019-06-15T07:17:38.939Z,991.77
2019-06-15T07:27:39.754Z,992.04
2019-06-15T07:37:38.987Z,992.25
2019-06-15T07:47:38.925Z,992.28
2019-06-15T07:57:39.027Z,992.32
2019-06-15T08:07:39.073Z,992.50
2019-06-15T08:17:38.934Z,992.62
2019-06-15T08:27:39.050Z,992.91
2019-06-15T08:37:39.008Z,993.02
2019-06-15T08:47:38.959Z,993.09
2019-06-15T08:57:40.525Z,993.16
2019-06-15T09:07:39.011Z,993.42
2019-06-15T09:17:39.077Z,993.54
2019-06-15T09:27:39.023Z,993.89
2019-06-15T09:37:39.007Z,994.04
2019-06-15T09:47:38.970Z,994.12
2019-06-15T09:57:39.008Z,994.08
2019-06-15T10:07:38.981Z,994.25
2019-06-15T10:17:38.980Z,994.23
2019-06-15T10:27:39.343Z,994.30
2019-06-15T10:37:38.975Z,994.47
2019-06-15T10:47:39.777Z,994.37
2019-06-15T10:57:39.007Z,994.38
2019-06-15T11:07:39.011Z,994.49
2019-06-15T11:17:39.072Z,994.55
2019-06-15T11:27:39.075Z,994.76
2019-06-15T11:37:39.040Z,994.83
2019-06-15T11:47:39.105Z,994.80
2019-06-15T11:57:39.056Z,994.88
2019-06-15T12:07:39.032Z,994.99
2019-06-15T12:17:39.085Z,995.03
2019-06-15T12:27:39.055Z,995.09
2019-06-15T12:37:39.051Z,995.06
2019-06-15T12:47:39.083Z,995.09
2019-06-15T12:57:39.058Z,995.12
2019-06-15T13:07:39.112Z,995.15
2019-06-15T13:17:39.048Z,995.22
2019-06-15T13:27:39.042Z,995.13
2019-06-15T13:37:42.331Z,995.13
2019-06-15T13:47:39.077Z,995.16
2019-06-15T13:57:39.140Z,995.18
2019-06-15T14:07:39.448Z,995.20
2019-06-15T14:17:40.200Z,995.26
2019-06-15T14:27:39.194Z,995.22
2019-06-15T14:37:39.104Z,995.17
2019-06-15T14:47:39.053Z,995.21
2019-06-15T14:57:39.117Z,995.12
2019-06-15T15:07:39.116Z,995.16
2019-06-15T15:17:39.067Z,995.13
2019-06-15T15:27:39.128Z,994.94
2019-06-15T15:37:39.114Z,994.87
2019-06-15T15:47:39.194Z,995.00
2019-06-15T15:57:39.245Z,995.13
2019-06-15T16:07:39.113Z,995.12
2019-06-15T16:17:39.057Z,995.14
2019-06-15T16:27:39.148Z,995.09
2019-06-15T16:37:39.099Z,995.18
2019-06-15T16:47:39.206Z,995.16
2019-06-15T16:57:39.146Z,995.18
2019-06-15T17:07:39.048Z,995.18
2019-06-15T17:17:39.175Z,995.19
2019-06-15T17:27:39.158Z,995.12
2019-06-15T17:37:39.115Z,995.19
2019-06-15T17:47:39.159Z,995.14
2019-06-15T17:57:39.178Z,995.24
2019-06-15T18:07:39.123Z,995.32
2019-06-15T18:17:39.183Z,995.38
2019-06-15T18:27:39.269Z,995.40
2019-06-15T18:37:39.108Z,995.45
2019-06-15T18:47:39.197Z,995.40
2019-06-15T18:57:39.174Z,995.56
2019-06-15T19:07:39.204Z,995.66
2019-06-15T19:17:39.148Z,995.71
2019-06-15T19:27:39.117Z,995.83
2019-06-15T19:37:39.306Z,995.84
2019-06-15T19:47:39.153Z,995.83
2019-06-15T19:57:39.224Z,995.78
2019-06-15T20:07:39.323Z,995.91
2019-06-15T20:17:39.278Z,995.94
2019-06-15T20:27:39.241Z,996.16
2019-06-15T20:37:39.212Z,996.32
2019-06-15T20:47:39.144Z,996.21
2019-06-15T20:57:39.225Z,996.27
2019-06-15T21:07:39.290Z,996.39
2019-06-15T21:17:39.176Z,996.64
2019-06-15T21:27:39.275Z,996.74
2019-06-15T21:37:39.209Z,996.76
2019-06-15T21:47:39.164Z,996.95
2019-06-15T21:57:39.267Z,997.11
2019-06-15T22:07:39.196Z,997.36
2019-06-15T22:17:39.162Z,997.42
2019-06-15T22:27:39.245Z,997.55
2019-06-15T22:37:39.227Z,997.70
2019-06-15T22:47:39.291Z,997.81
2019-06-15T22:57:39.247Z,997.84
2019-06-15T23:07:39.204Z,997.90
2019-06-15T23:17:39.188Z,998.00
2019-06-15T23:27:39.289Z,997.97
2019-06-15T23:37:39.108Z,998.00
2019-06-15T23:47:39.174Z,997.97
2019-06-15T23:57:39.253Z,997.99
